Terminal Aerodrome Forecast
Issued by NWS

Home | Current Version | Previous Version | Text Only | Print | Product List | Glossary On
Versions: 1 2 3 4 5 6 7 8 9 10 11 12 13
000
FTUS43 KFGF 151100
TAFBJI
TAF
KBJI 151135Z 1512/1612 VRB05KT P6SM FEW200
     FM151700 14007KT P6SM BKN100 BKN250
     FM160100 10012KT P6SM BKN080=

USA.gov is the U.S. government's official web portal to all federal, state and local government web resources and services.